Manson, WA (98831)

6:17 AM PDT on October 01, 2016 (GMT -0700)
Chelan Ridge | | Change Station

Elev 1490 ft 47.87 °N, 120.19 °W | Updated 21 seconds ago

Clear
Clear
53.6 °F
Feels Like 53.6 °F
N
2.5
Wind Variable Wind from SSE
Gusts 2.5 mph

Today
High -- | Low -- °F
--% Chance of Precip.
Yesterday
High -- | Low -- °F
Precip. -- in
Pressure 29.88 in
Visibility 10.0 miles
Clouds Clear
Dew Point 26 °F
Humidity 34%
Rainfall 0.00 in
Snow Depth Not available.
7:00 AM 6:38 PM
New Moon, 0% visible
METAR KEAT 011255Z AUTO 31007KT 10SM CLR 11/00 A2989 RMK AO2 SLP119 T01060000
Pressure 29.88 in
Visibility 10.0 miles
Clouds Clear
Dew Point 26 °F
Humidity 34%
Rainfall 0.00 in
Snow Depth Not available.
7:00 AM 6:38 PM
New Moon, 0% visible
METAR KEAT 011255Z AUTO 31007KT 10SM CLR 11/00 A2989 RMK AO2 SLP119 T01060000

10-Day Weather Forecast

Almanac

Astronomy

Oct. 01, 2016 Rise Set
Actual Time
Civil Twilight
Nautical Twilight
Astronomical Twilight
Moon
Length of Visible Light
Length of Day
Tomorrow will be .
, % of the Moon is Illuminated

Today's Extremes

State Highs State Lows

Community

WunderPhotos

Upload Photos

1,942,929 photos uploaded!

WunderBlog® & News

Nearby

Air Quality

  Air Quality AQ Index Pollutant
Not available.

Snow Depth

Station Depth Elevation

Earthquake Activity

City Distance Mag. Time & Date
Minimum magnitude displayed is 2.5.

Coastal Water Temperatures

Place Temperature

Stations

Nearby Weather Stations

Station Location Temp. Windchill Dew Point Humidity Wind Precip. Elev Updated Type
                   

Watches & Warnings

There are currently no watches in effect.